sensor_id;sensor_type;location;lat;lon;timestamp;P1;durP1;ratioP1;P2;durP2;ratioP2
13185;SDS011;6658;53.080;7.428;2023-05-10T00:07:46;4.10;;;3.70;;
13185;SDS011;6658;53.080;7.428;2023-05-10T00:10:52;3.83;;;3.53;;
13185;SDS011;6658;53.080;7.428;2023-05-10T00:17:19;5.50;;;4.20;;
13185;SDS011;6658;53.080;7.428;2023-05-10T00:20:13;4.70;;;4.30;;
13185;SDS011;6658;53.080;7.428;2023-05-10T00:22:51;4.50;;;4.10;;
13185;SDS011;6658;53.080;7.428;2023-05-10T00:29:00;4.67;;;4.27;;
13185;SDS011;6658;53.080;7.428;2023-05-10T00:31:34;6.50;;;5.90;;
13185;SDS011;6658;53.080;7.428;2023-05-10T00:34:21;6.40;;;5.80;;
13185;SDS011;6658;53.080;7.428;2023-05-10T00:36:57;6.47;;;5.87;;
13185;SDS011;6658;53.080;7.428;2023-05-10T00:39:31;6.60;;;5.90;;
13185;SDS011;6658;53.080;7.428;2023-05-10T00:41:57;6.37;;;5.87;;
13185;SDS011;6658;53.080;7.428;2023-05-10T00:44:22;6.83;;;6.23;;
13185;SDS011;6658;53.080;7.428;2023-05-10T00:46:48;6.80;;;6.10;;
13185;SDS011;6658;53.080;7.428;2023-05-10T00:49:26;7.47;;;6.73;;
13185;SDS011;6658;53.080;7.428;2023-05-10T00:52:02;7.13;;;6.20;;
13185;SDS011;6658;53.080;7.428;2023-05-10T00:54:37;7.60;;;6.90;;
13185;SDS011;6658;53.080;7.428;2023-05-10T01:42:40;16.90;;;10.37;;
13185;SDS011;6658;53.080;7.428;2023-05-10T01:45:30;10.93;;;9.57;;
13185;SDS011;6658;53.080;7.428;2023-05-10T01:48:06;10.83;;;9.70;;
13185;SDS011;6658;53.080;7.428;2023-05-10T01:50:43;9.70;;;8.73;;
13185;SDS011;6658;53.080;7.428;2023-05-10T01:53:17;11.10;;;9.10;;
13185;SDS011;6658;53.080;7.428;2023-05-10T01:55:51;9.17;;;8.27;;
13185;SDS011;6658;53.080;7.428;2023-05-10T01:58:21;7.47;;;6.63;;
13185;SDS011;6658;53.080;7.428;2023-05-10T02:00:52;4.00;;;3.50;;
13185;SDS011;6658;53.080;7.428;2023-05-10T02:03:20;4.00;;;3.70;;
13185;SDS011;6658;53.080;7.428;2023-05-10T02:05:48;4.67;;;4.10;;
13185;SDS011;6658;53.080;7.428;2023-05-10T02:08:15;4.00;;;3.70;;
13185;SDS011;6658;53.080;7.428;2023-05-10T02:10:45;6.77;;;4.50;;
13185;SDS011;6658;53.080;7.428;2023-05-10T02:13:11;4.60;;;4.20;;
13185;SDS011;6658;53.080;7.428;2023-05-10T02:15:39;7.13;;;5.20;;
13185;SDS011;6658;53.080;7.428;2023-05-10T02:18:06;5.70;;;5.20;;
13185;SDS011;6658;53.080;7.428;2023-05-10T02:20:34;5.43;;;5.00;;
13185;SDS011;6658;53.080;7.428;2023-05-10T02:23:03;6.03;;;5.43;;
13185;SDS011;6658;53.080;7.428;2023-05-10T02:25:29;6.53;;;5.93;;
13185;SDS011;6658;53.080;7.428;2023-05-10T02:27:57;6.90;;;6.20;;
13185;SDS011;6658;53.080;7.428;2023-05-10T02:30:29;6.40;;;5.80;;
13185;SDS011;6658;53.080;7.428;2023-05-10T02:33:22;7.10;;;6.40;;
13185;SDS011;6658;53.080;7.428;2023-05-10T02:35:50;8.17;;;6.50;;
13185;SDS011;6658;53.080;7.428;2023-05-10T02:38:19;7.07;;;6.00;;
13185;SDS011;6658;53.080;7.428;2023-05-10T02:40:49;7.77;;;6.60;;
13185;SDS011;6658;53.080;7.428;2023-05-10T02:43:22;7.57;;;6.80;;
13185;SDS011;6658;53.080;7.428;2023-05-10T02:46:03;7.93;;;7.13;;
13185;SDS011;6658;53.080;7.428;2023-05-10T02:48:53;7.67;;;6.57;;
13185;SDS011;6658;53.080;7.428;2023-05-10T02:51:19;7.70;;;7.00;;
13185;SDS011;6658;53.080;7.428;2023-05-10T02:53:50;7.53;;;6.83;;
13185;SDS011;6658;53.080;7.428;2023-05-10T02:56:30;6.77;;;6.17;;
13185;SDS011;6658;53.080;7.428;2023-05-10T02:59:07;6.63;;;6.03;;
13185;SDS011;6658;53.080;7.428;2023-05-10T03:01:49;8.07;;;6.47;;
13185;SDS011;6658;53.080;7.428;2023-05-10T03:04:14;7.50;;;5.90;;
13185;SDS011;6658;53.080;7.428;2023-05-10T03:10:33;6.87;;;6.10;;
13185;SDS011;6658;53.080;7.428;2023-05-10T03:16:44;6.97;;;6.37;;
13185;SDS011;6658;53.080;7.428;2023-05-10T03:20:46;6.87;;;6.27;;
13185;SDS011;6658;53.080;7.428;2023-05-10T03:43:33;8.33;;;7.43;;
13185;SDS011;6658;53.080;7.428;2023-05-10T03:46:02;8.20;;;7.40;;
13185;SDS011;6658;53.080;7.428;2023-05-10T03:48:40;8.90;;;8.10;;
13185;SDS011;6658;53.080;7.428;2023-05-10T03:51:09;12.67;;;8.23;;
13185;SDS011;6658;53.080;7.428;2023-05-10T03:56:22;8.43;;;7.47;;
13185;SDS011;6658;53.080;7.428;2023-05-10T03:58:48;10.73;;;7.40;;
13185;SDS011;6658;53.080;7.428;2023-05-10T04:01:14;9.23;;;7.47;;
13185;SDS011;6658;53.080;7.428;2023-05-10T04:03:39;9.50;;;7.63;;
13185;SDS011;6658;53.080;7.428;2023-05-10T04:06:05;9.27;;;7.20;;
13185;SDS011;6658;53.080;7.428;2023-05-10T04:08:36;7.47;;;6.77;;
13185;SDS011;6658;53.080;7.428;2023-05-10T04:11:09;9.03;;;7.10;;
13185;SDS011;6658;53.080;7.428;2023-05-10T04:13:35;12.20;;;8.27;;
13185;SDS011;6658;53.080;7.428;2023-05-10T04:16:02;7.07;;;6.37;;
13185;SDS011;6658;53.080;7.428;2023-05-10T04:18:28;8.93;;;7.00;;
13185;SDS011;6658;53.080;7.428;2023-05-10T04:20:55;7.60;;;6.87;;
13185;SDS011;6658;53.080;7.428;2023-05-10T04:23:20;7.63;;;6.73;;
13185;SDS011;6658;53.080;7.428;2023-05-10T04:25:46;9.13;;;7.80;;
13185;SDS011;6658;53.080;7.428;2023-05-10T04:28:12;8.57;;;7.50;;
13185;SDS011;6658;53.080;7.428;2023-05-10T04:30:38;8.67;;;7.63;;
13185;SDS011;6658;53.080;7.428;2023-05-10T04:33:04;8.63;;;7.73;;
13185;SDS011;6658;53.080;7.428;2023-05-10T04:35:29;9.67;;;7.83;;
13185;SDS011;6658;53.080;7.428;2023-05-10T04:37:55;8.57;;;7.67;;
13185;SDS011;6658;53.080;7.428;2023-05-10T04:40:21;11.70;;;7.83;;
13185;SDS011;6658;53.080;7.428;2023-05-10T04:42:47;10.10;;;8.63;;
13185;SDS011;6658;53.080;7.428;2023-05-10T04:45:13;9.30;;;8.10;;
13185;SDS011;6658;53.080;7.428;2023-05-10T04:47:42;10.07;;;8.00;;
13185;SDS011;6658;53.080;7.428;2023-05-10T04:50:08;8.53;;;7.33;;
13185;SDS011;6658;53.080;7.428;2023-05-10T04:52:34;9.17;;;7.37;;
13185;SDS011;6658;53.080;7.428;2023-05-10T04:55:00;8.03;;;7.07;;
13185;SDS011;6658;53.080;7.428;2023-05-10T04:57:25;8.63;;;6.97;;
13185;SDS011;6658;53.080;7.428;2023-05-10T04:59:51;11.00;;;8.17;;
13185;SDS011;6658;53.080;7.428;2023-05-10T05:02:17;8.23;;;7.40;;
13185;SDS011;6658;53.080;7.428;2023-05-10T05:04:43;8.70;;;7.30;;
13185;SDS011;6658;53.080;7.428;2023-05-10T05:07:08;8.40;;;7.60;;
13185;SDS011;6658;53.080;7.428;2023-05-10T05:09:34;10.13;;;7.40;;
13185;SDS011;6658;53.080;7.428;2023-05-10T05:12:00;8.83;;;7.10;;
13185;SDS011;6658;53.080;7.428;2023-05-10T05:14:26;10.20;;;7.40;;
13185;SDS011;6658;53.080;7.428;2023-05-10T05:16:52;10.00;;;7.73;;
13185;SDS011;6658;53.080;7.428;2023-05-10T05:19:18;8.07;;;6.27;;
13185;SDS011;6658;53.080;7.428;2023-05-10T05:21:44;8.10;;;7.27;;
13185;SDS011;6658;53.080;7.428;2023-05-10T05:24:10;8.70;;;7.27;;
13185;SDS011;6658;53.080;7.428;2023-05-10T05:26:37;17.93;;;8.10;;
13185;SDS011;6658;53.080;7.428;2023-05-10T05:29:03;10.50;;;7.90;;
13185;SDS011;6658;53.080;7.428;2023-05-10T05:31:29;8.70;;;6.93;;
13185;SDS011;6658;53.080;7.428;2023-05-10T05:33:55;8.37;;;6.50;;
13185;SDS011;6658;53.080;7.428;2023-05-10T05:36:21;8.00;;;7.20;;
13185;SDS011;6658;53.080;7.428;2023-05-10T05:38:47;7.90;;;7.17;;
13185;SDS011;6658;53.080;7.428;2023-05-10T05:41:16;9.03;;;7.30;;
13185;SDS011;6658;53.080;7.428;2023-05-10T05:43:42;10.77;;;7.57;;
13185;SDS011;6658;53.080;7.428;2023-05-10T05:46:07;6.93;;;6.33;;
13185;SDS011;6658;53.080;7.428;2023-05-10T05:48:33;7.77;;;6.93;;
13185;SDS011;6658;53.080;7.428;2023-05-10T05:51:01;9.20;;;6.73;;
13185;SDS011;6658;53.080;7.428;2023-05-10T05:53:27;7.07;;;6.20;;
13185;SDS011;6658;53.080;7.428;2023-05-10T05:55:54;12.20;;;6.53;;
13185;SDS011;6658;53.080;7.428;2023-05-10T05:58:21;6.63;;;6.03;;
13185;SDS011;6658;53.080;7.428;2023-05-10T06:00:47;6.20;;;5.60;;
13185;SDS011;6658;53.080;7.428;2023-05-10T06:03:13;7.07;;;5.70;;
13185;SDS011;6658;53.080;7.428;2023-05-10T06:05:39;6.20;;;5.60;;
13185;SDS011;6658;53.080;7.428;2023-05-10T06:08:05;5.40;;;4.90;;
13185;SDS011;6658;53.080;7.428;2023-05-10T06:10:31;5.10;;;4.70;;
13185;SDS011;6658;53.080;7.428;2023-05-10T06:12:56;5.07;;;4.50;;
13185;SDS011;6658;53.080;7.428;2023-05-10T06:15:23;4.50;;;4.20;;
13185;SDS011;6658;53.080;7.428;2023-05-10T06:17:52;4.73;;;4.20;;
13185;SDS011;6658;53.080;7.428;2023-05-10T06:20:18;3.83;;;3.53;;
13185;SDS011;6658;53.080;7.428;2023-05-10T06:22:44;4.30;;;3.90;;
13185;SDS011;6658;53.080;7.428;2023-05-10T06:25:09;4.07;;;3.77;;
13185;SDS011;6658;53.080;7.428;2023-05-10T06:27:36;4.77;;;4.37;;
13185;SDS011;6658;53.080;7.428;2023-05-10T06:30:02;6.00;;;5.50;;
13185;SDS011;6658;53.080;7.428;2023-05-10T06:32:28;4.60;;;4.20;;
13185;SDS011;6658;53.080;7.428;2023-05-10T06:34:54;4.50;;;4.10;;
13185;SDS011;6658;53.080;7.428;2023-05-10T06:37:20;4.30;;;3.90;;
13185;SDS011;6658;53.080;7.428;2023-05-10T06:39:46;3.87;;;3.57;;
13185;SDS011;6658;53.080;7.428;2023-05-10T06:42:12;4.20;;;3.60;;
13185;SDS011;6658;53.080;7.428;2023-05-10T06:44:37;4.70;;;4.20;;
13185;SDS011;6658;53.080;7.428;2023-05-10T06:47:03;4.30;;;4.00;;
13185;SDS011;6658;53.080;7.428;2023-05-10T06:49:29;4.07;;;3.67;;
13185;SDS011;6658;53.080;7.428;2023-05-10T06:51:57;4.80;;;3.77;;
13185;SDS011;6658;53.080;7.428;2023-05-10T06:54:23;4.30;;;3.90;;
13185;SDS011;6658;53.080;7.428;2023-05-10T06:56:49;7.03;;;4.63;;
13185;SDS011;6658;53.080;7.428;2023-05-10T06:59:18;4.47;;;4.07;;
13185;SDS011;6658;53.080;7.428;2023-05-10T07:01:44;4.13;;;3.83;;
13185;SDS011;6658;53.080;7.428;2023-05-10T07:04:10;3.73;;;3.43;;
13185;SDS011;6658;53.080;7.428;2023-05-10T07:06:41;3.97;;;3.33;;
13185;SDS011;6658;53.080;7.428;2023-05-10T07:09:07;3.13;;;2.93;;
13185;SDS011;6658;53.080;7.428;2023-05-10T07:11:33;3.77;;;3.43;;
13185;SDS011;6658;53.080;7.428;2023-05-10T07:13:59;3.00;;;2.80;;
13185;SDS011;6658;53.080;7.428;2023-05-10T07:16:27;3.07;;;2.87;;
13185;SDS011;6658;53.080;7.428;2023-05-10T07:18:53;3.73;;;3.40;;
13185;SDS011;6658;53.080;7.428;2023-05-10T07:21:19;3.47;;;3.20;;
13185;SDS011;6658;53.080;7.428;2023-05-10T07:23:45;2.10;;;2.00;;
13185;SDS011;6658;53.080;7.428;2023-05-10T07:26:11;2.53;;;2.00;;
13185;SDS011;6658;53.080;7.428;2023-05-10T07:28:36;2.50;;;2.00;;
13185;SDS011;6658;53.080;7.428;2023-05-10T07:31:05;1.90;;;1.80;;
13185;SDS011;6658;53.080;7.428;2023-05-10T07:33:31;2.10;;;2.00;;
13185;SDS011;6658;53.080;7.428;2023-05-10T07:35:57;2.30;;;2.10;;
13185;SDS011;6658;53.080;7.428;2023-05-10T07:38:22;1.43;;;1.33;;
13185;SDS011;6658;53.080;7.428;2023-05-10T07:40:48;1.70;;;1.27;;
13185;SDS011;6658;53.080;7.428;2023-05-10T07:43:14;1.20;;;1.10;;
13185;SDS011;6658;53.080;7.428;2023-05-10T07:45:40;1.30;;;1.20;;
13185;SDS011;6658;53.080;7.428;2023-05-10T07:48:05;1.20;;;1.00;;
13185;SDS011;6658;53.080;7.428;2023-05-10T07:50:31;0.83;;;0.83;;
13185;SDS011;6658;53.080;7.428;2023-05-10T07:52:57;0.80;;;0.80;;
13185;SDS011;6658;53.080;7.428;2023-05-10T07:55:23;0.80;;;0.80;;
13185;SDS011;6658;53.080;7.428;2023-05-10T07:57:48;0.90;;;0.90;;
13185;SDS011;6658;53.080;7.428;2023-05-10T08:00:17;1.20;;;1.10;;
13185;SDS011;6658;53.080;7.428;2023-05-10T08:02:44;0.60;;;0.60;;
13185;SDS011;6658;53.080;7.428;2023-05-10T08:05:10;0.30;;;0.30;;
13185;SDS011;6658;53.080;7.428;2023-05-10T08:07:35;0.30;;;0.30;;
13185;SDS011;6658;53.080;7.428;2023-05-10T08:10:02;0.57;;;0.40;;
13185;SDS011;6658;53.080;7.428;2023-05-10T08:12:28;0.30;;;0.30;;
13185;SDS011;6658;53.080;7.428;2023-05-10T08:14:54;0.20;;;0.20;;
13185;SDS011;6658;53.080;7.428;2023-05-10T08:17:20;0.30;;;0.30;;
13185;SDS011;6658;53.080;7.428;2023-05-10T08:19:45;0.37;;;0.33;;
13185;SDS011;6658;53.080;7.428;2023-05-10T08:22:11;0.20;;;0.20;;
13185;SDS011;6658;53.080;7.428;2023-05-10T08:24:37;0.27;;;0.20;;
13185;SDS011;6658;53.080;7.428;2023-05-10T08:27:07;0.20;;;0.20;;
13185;SDS011;6658;53.080;7.428;2023-05-10T08:29:33;0.37;;;0.30;;
13185;SDS011;6658;53.080;7.428;2023-05-10T08:31:59;0.37;;;0.37;;
13185;SDS011;6658;53.080;7.428;2023-05-10T08:34:26;0.30;;;0.30;;
13185;SDS011;6658;53.080;7.428;2023-05-10T08:36:52;0.77;;;0.33;;
13185;SDS011;6658;53.080;7.428;2023-05-10T08:39:21;0.30;;;0.30;;
13185;SDS011;6658;53.080;7.428;2023-05-10T08:41:48;0.60;;;0.50;;
13185;SDS011;6658;53.080;7.428;2023-05-10T08:44:18;0.87;;;0.40;;
13185;SDS011;6658;53.080;7.428;2023-05-10T08:46:46;0.67;;;0.67;;
13185;SDS011;6658;53.080;7.428;2023-05-10T08:49:18;1.70;;;0.70;;
13185;SDS011;6658;53.080;7.428;2023-05-10T08:51:52;0.80;;;0.57;;
13185;SDS011;6658;53.080;7.428;2023-05-10T08:54:21;1.03;;;0.93;;
13185;SDS011;6658;53.080;7.428;2023-05-10T08:56:47;0.70;;;0.63;;
13185;SDS011;6658;53.080;7.428;2023-05-10T08:59:13;0.70;;;0.70;;
13185;SDS011;6658;53.080;7.428;2023-05-10T09:01:39;1.13;;;0.90;;
13185;SDS011;6658;53.080;7.428;2023-05-10T09:04:07;0.50;;;0.50;;
13185;SDS011;6658;53.080;7.428;2023-05-10T09:06:33;0.70;;;0.70;;
13185;SDS011;6658;53.080;7.428;2023-05-10T09:08:59;1.23;;;0.50;;
13185;SDS011;6658;53.080;7.428;2023-05-10T09:11:26;0.30;;;0.30;;
13185;SDS011;6658;53.080;7.428;2023-05-10T09:13:54;0.40;;;0.40;;
13185;SDS011;6658;53.080;7.428;2023-05-10T09:16:21;0.73;;;0.60;;
13185;SDS011;6658;53.080;7.428;2023-05-10T09:18:47;0.57;;;0.50;;
13185;SDS011;6658;53.080;7.428;2023-05-10T09:21:14;0.77;;;0.57;;
13185;SDS011;6658;53.080;7.428;2023-05-10T09:23:43;0.47;;;0.47;;
13185;SDS011;6658;53.080;7.428;2023-05-10T09:26:12;0.40;;;0.40;;
13185;SDS011;6658;53.080;7.428;2023-05-10T09:28:51;1.00;;;0.50;;
13185;SDS011;6658;53.080;7.428;2023-05-10T09:31:18;0.60;;;0.60;;
13185;SDS011;6658;53.080;7.428;2023-05-10T09:33:48;0.73;;;0.73;;
13185;SDS011;6658;53.080;7.428;2023-05-10T09:36:15;1.10;;;0.97;;
13185;SDS011;6658;53.080;7.428;2023-05-10T09:41:22;1.90;;;1.80;;
13185;SDS011;6658;53.080;7.428;2023-05-10T09:43:49;1.40;;;1.30;;
13185;SDS011;6658;53.080;7.428;2023-05-10T09:46:15;2.00;;;1.80;;
13185;SDS011;6658;53.080;7.428;2023-05-10T09:48:43;1.80;;;1.70;;
13185;SDS011;6658;53.080;7.428;2023-05-10T09:51:10;1.93;;;1.83;;
13185;SDS011;6658;53.080;7.428;2023-05-10T09:53:36;1.87;;;1.77;;
13185;SDS011;6658;53.080;7.428;2023-05-10T09:56:02;2.47;;;1.70;;
13185;SDS011;6658;53.080;7.428;2023-05-10T09:58:28;1.50;;;1.40;;
13185;SDS011;6658;53.080;7.428;2023-05-10T10:00:54;1.83;;;1.50;;
13185;SDS011;6658;53.080;7.428;2023-05-10T10:03:20;1.47;;;1.37;;
13185;SDS011;6658;53.080;7.428;2023-05-10T10:05:47;1.80;;;1.70;;
13185;SDS011;6658;53.080;7.428;2023-05-10T10:08:13;1.70;;;1.60;;
13185;SDS011;6658;53.080;7.428;2023-05-10T10:10:40;2.80;;;1.50;;
13185;SDS011;6658;53.080;7.428;2023-05-10T10:13:07;1.43;;;1.30;;
13185;SDS011;6658;53.080;7.428;2023-05-10T10:15:33;1.40;;;1.30;;
13185;SDS011;6658;53.080;7.428;2023-05-10T10:18:00;1.60;;;1.50;;
13185;SDS011;6658;53.080;7.428;2023-05-10T10:20:26;1.57;;;1.47;;
13185;SDS011;6658;53.080;7.428;2023-05-10T10:22:53;1.60;;;1.50;;
13185;SDS011;6658;53.080;7.428;2023-05-10T10:25:19;2.03;;;1.83;;
13185;SDS011;6658;53.080;7.428;2023-05-10T10:35:51;1.63;;;1.53;;
13185;SDS011;6658;53.080;7.428;2023-05-10T10:38:18;2.33;;;1.97;;
13185;SDS011;6658;53.080;7.428;2023-05-10T10:40:47;1.50;;;1.40;;
13185;SDS011;6658;53.080;7.428;2023-05-10T10:48:38;1.67;;;1.57;;
13185;SDS011;6658;53.080;7.428;2023-05-10T10:51:04;1.70;;;1.60;;
13185;SDS011;6658;53.080;7.428;2023-05-10T10:53:30;1.60;;;1.47;;
13185;SDS011;6658;53.080;7.428;2023-05-10T10:56:07;1.53;;;1.43;;
13185;SDS011;6658;53.080;7.428;2023-05-10T10:58:35;1.60;;;1.50;;
13185;SDS011;6658;53.080;7.428;2023-05-10T11:01:09;1.87;;;1.77;;
13185;SDS011;6658;53.080;7.428;2023-05-10T11:04:16;1.80;;;1.70;;
13185;SDS011;6658;53.080;7.428;2023-05-10T11:06:43;1.57;;;1.47;;
13185;SDS011;6658;53.080;7.428;2023-05-10T11:09:10;1.50;;;1.40;;
13185;SDS011;6658;53.080;7.428;2023-05-10T11:11:53;1.60;;;1.50;;
13185;SDS011;6658;53.080;7.428;2023-05-10T11:14:23;1.80;;;1.70;;
13185;SDS011;6658;53.080;7.428;2023-05-10T11:16:49;1.60;;;1.50;;
13185;SDS011;6658;53.080;7.428;2023-05-10T11:19:16;1.70;;;1.60;;
13185;SDS011;6658;53.080;7.428;2023-05-10T11:24:38;1.83;;;1.73;;
13185;SDS011;6658;53.080;7.428;2023-05-10T11:27:04;1.83;;;1.73;;
13185;SDS011;6658;53.080;7.428;2023-05-10T11:29:30;1.20;;;1.20;;
13185;SDS011;6658;53.080;7.428;2023-05-10T11:31:57;1.23;;;1.20;;
13185;SDS011;6658;53.080;7.428;2023-05-10T11:34:24;1.40;;;1.30;;
13185;SDS011;6658;53.080;7.428;2023-05-10T11:37:00;1.10;;;1.10;;
13185;SDS011;6658;53.080;7.428;2023-05-10T11:39:27;0.90;;;0.90;;
13185;SDS011;6658;53.080;7.428;2023-05-10T11:41:54;1.10;;;1.10;;
13185;SDS011;6658;53.080;7.428;2023-05-10T11:44:20;0.57;;;0.57;;
13185;SDS011;6658;53.080;7.428;2023-05-10T11:46:46;0.60;;;0.60;;
13185;SDS011;6658;53.080;7.428;2023-05-10T11:49:15;0.70;;;0.70;;
13185;SDS011;6658;53.080;7.428;2023-05-10T11:51:41;1.00;;;0.90;;
13185;SDS011;6658;53.080;7.428;2023-05-10T11:54:09;0.80;;;0.80;;
13185;SDS011;6658;53.080;7.428;2023-05-10T11:56:39;0.77;;;0.77;;
13185;SDS011;6658;53.080;7.428;2023-05-10T11:59:06;0.77;;;0.60;;
13185;SDS011;6658;53.080;7.428;2023-05-10T12:01:38;1.23;;;0.70;;
13185;SDS011;6658;53.080;7.428;2023-05-10T12:04:05;0.63;;;0.63;;
13185;SDS011;6658;53.080;7.428;2023-05-10T12:06:31;1.23;;;0.90;;
13185;SDS011;6658;53.080;7.428;2023-05-10T12:09:05;0.90;;;0.90;;
13185;SDS011;6658;53.080;7.428;2023-05-10T12:11:35;1.20;;;1.10;;
13185;SDS011;6658;53.080;7.428;2023-05-10T12:14:04;1.83;;;1.60;;
13185;SDS011;6658;53.080;7.428;2023-05-10T12:16:30;1.23;;;1.13;;
13185;SDS011;6658;53.080;7.428;2023-05-10T12:18:57;1.20;;;1.20;;
13185;SDS011;6658;53.080;7.428;2023-05-10T12:21:24;1.40;;;1.30;;
13185;SDS011;6658;53.080;7.428;2023-05-10T12:23:54;1.20;;;1.10;;
13185;SDS011;6658;53.080;7.428;2023-05-10T12:26:25;1.77;;;1.67;;
13185;SDS011;6658;53.080;7.428;2023-05-10T12:29:15;1.30;;;1.20;;
13185;SDS011;6658;53.080;7.428;2023-05-10T12:31:53;1.50;;;1.40;;
13185;SDS011;6658;53.080;7.428;2023-05-10T12:34:24;1.33;;;1.23;;
13185;SDS011;6658;53.080;7.428;2023-05-10T12:36:54;1.93;;;1.50;;
13185;SDS011;6658;53.080;7.428;2023-05-10T12:39:21;1.20;;;1.20;;
13185;SDS011;6658;53.080;7.428;2023-05-10T12:41:47;1.40;;;1.30;;
13185;SDS011;6658;53.080;7.428;2023-05-10T12:44:12;1.80;;;1.50;;
13185;SDS011;6658;53.080;7.428;2023-05-10T12:46:38;1.50;;;1.40;;
13185;SDS011;6658;53.080;7.428;2023-05-10T12:49:04;1.30;;;1.20;;
13185;SDS011;6658;53.080;7.428;2023-05-10T12:51:30;2.47;;;1.10;;
13185;SDS011;6658;53.080;7.428;2023-05-10T12:53:56;1.40;;;1.23;;
13185;SDS011;6658;53.080;7.428;2023-05-10T12:56:22;1.40;;;1.30;;
13185;SDS011;6658;53.080;7.428;2023-05-10T12:58:47;1.27;;;1.17;;
13185;SDS011;6658;53.080;7.428;2023-05-10T13:01:14;1.33;;;1.23;;
13185;SDS011;6658;53.080;7.428;2023-05-10T13:03:45;1.33;;;1.23;;
13185;SDS011;6658;53.080;7.428;2023-05-10T13:06:11;2.23;;;1.37;;
13185;SDS011;6658;53.080;7.428;2023-05-10T13:08:38;1.10;;;1.00;;
13185;SDS011;6658;53.080;7.428;2023-05-10T13:11:05;1.60;;;1.50;;
13185;SDS011;6658;53.080;7.428;2023-05-10T13:13:31;1.53;;;1.27;;
13185;SDS011;6658;53.080;7.428;2023-05-10T13:15:56;0.97;;;0.97;;
13185;SDS011;6658;53.080;7.428;2023-05-10T13:18:22;1.33;;;1.23;;
13185;SDS011;6658;53.080;7.428;2023-05-10T13:20:49;2.00;;;1.80;;
13185;SDS011;6658;53.080;7.428;2023-05-10T13:23:15;1.30;;;1.20;;
13185;SDS011;6658;53.080;7.428;2023-05-10T13:25:41;1.57;;;1.47;;
13185;SDS011;6658;53.080;7.428;2023-05-10T13:28:06;1.43;;;1.33;;
13185;SDS011;6658;53.080;7.428;2023-05-10T13:30:32;2.10;;;1.60;;
13185;SDS011;6658;53.080;7.428;2023-05-10T13:33:01;1.83;;;1.40;;
13185;SDS011;6658;53.080;7.428;2023-05-10T13:35:32;1.47;;;1.30;;
13185;SDS011;6658;53.080;7.428;2023-05-10T13:37:58;1.40;;;1.30;;
13185;SDS011;6658;53.080;7.428;2023-05-10T13:40:23;3.10;;;1.80;;
13185;SDS011;6658;53.080;7.428;2023-05-10T13:42:49;1.70;;;1.60;;
13185;SDS011;6658;53.080;7.428;2023-05-10T13:45:15;1.47;;;1.37;;
13185;SDS011;6658;53.080;7.428;2023-05-10T13:47:41;2.07;;;1.73;;
13185;SDS011;6658;53.080;7.428;2023-05-10T13:50:07;1.90;;;1.60;;
13185;SDS011;6658;53.080;7.428;2023-05-10T13:52:33;1.70;;;1.60;;
13185;SDS011;6658;53.080;7.428;2023-05-10T13:54:59;2.60;;;1.90;;
13185;SDS011;6658;53.080;7.428;2023-05-10T13:57:28;1.80;;;1.70;;
13185;SDS011;6658;53.080;7.428;2023-05-10T13:59:55;1.70;;;1.60;;
13185;SDS011;6658;53.080;7.428;2023-05-10T14:02:22;2.60;;;1.60;;
13185;SDS011;6658;53.080;7.428;2023-05-10T14:04:48;2.20;;;2.00;;
13185;SDS011;6658;53.080;7.428;2023-05-10T14:07:13;2.37;;;1.90;;
13185;SDS011;6658;53.080;7.428;2023-05-10T14:09:39;2.43;;;1.87;;
13185;SDS011;6658;53.080;7.428;2023-05-10T14:12:05;2.53;;;2.33;;
13185;SDS011;6658;53.080;7.428;2023-05-10T14:14:31;2.40;;;2.20;;
13185;SDS011;6658;53.080;7.428;2023-05-10T14:16:57;2.93;;;2.73;;
13185;SDS011;6658;53.080;7.428;2023-05-10T14:19:24;3.33;;;3.03;;
13185;SDS011;6658;53.080;7.428;2023-05-10T14:21:50;3.30;;;3.10;;
13185;SDS011;6658;53.080;7.428;2023-05-10T14:24:16;3.07;;;2.83;;
13185;SDS011;6658;53.080;7.428;2023-05-10T14:26:43;3.17;;;2.87;;
13185;SDS011;6658;53.080;7.428;2023-05-10T14:29:08;3.57;;;3.27;;
13185;SDS011;6658;53.080;7.428;2023-05-10T14:31:34;3.30;;;3.00;;
13185;SDS011;6658;53.080;7.428;2023-05-10T14:34:00;3.00;;;2.57;;
13185;SDS011;6658;53.080;7.428;2023-05-10T14:36:26;3.40;;;3.10;;
13185;SDS011;6658;53.080;7.428;2023-05-10T14:38:52;2.83;;;2.57;;
13185;SDS011;6658;53.080;7.428;2023-05-10T14:41:20;3.20;;;2.90;;
13185;SDS011;6658;53.080;7.428;2023-05-10T14:43:46;3.27;;;2.80;;
13185;SDS011;6658;53.080;7.428;2023-05-10T14:46:12;2.77;;;2.50;;
13185;SDS011;6658;53.080;7.428;2023-05-10T14:48:38;3.10;;;2.80;;
13185;SDS011;6658;53.080;7.428;2023-05-10T14:51:04;3.23;;;2.40;;
13185;SDS011;6658;53.080;7.428;2023-05-10T14:53:29;2.60;;;2.40;;
13185;SDS011;6658;53.080;7.428;2023-05-10T14:55:56;3.43;;;2.50;;
13185;SDS011;6658;53.080;7.428;2023-05-10T14:58:22;2.67;;;2.47;;
13185;SDS011;6658;53.080;7.428;2023-05-10T15:00:48;2.90;;;2.20;;
13185;SDS011;6658;53.080;7.428;2023-05-10T15:03:13;3.87;;;2.37;;
13185;SDS011;6658;53.080;7.428;2023-05-10T15:05:39;2.60;;;2.40;;
13185;SDS011;6658;53.080;7.428;2023-05-10T15:08:05;2.73;;;2.43;;
13185;SDS011;6658;53.080;7.428;2023-05-10T15:10:31;2.53;;;2.33;;
13185;SDS011;6658;53.080;7.428;2023-05-10T15:12:57;3.57;;;2.80;;
13185;SDS011;6658;53.080;7.428;2023-05-10T15:15:24;3.73;;;2.60;;
13185;SDS011;6658;53.080;7.428;2023-05-10T15:17:53;3.37;;;2.20;;
13185;SDS011;6658;53.080;7.428;2023-05-10T15:20:19;2.87;;;2.63;;
13185;SDS011;6658;53.080;7.428;2023-05-10T15:22:44;3.47;;;2.73;;
13185;SDS011;6658;53.080;7.428;2023-05-10T15:25:10;3.07;;;2.50;;
13185;SDS011;6658;53.080;7.428;2023-05-10T15:27:36;2.80;;;2.50;;
13185;SDS011;6658;53.080;7.428;2023-05-10T15:30:02;4.00;;;2.97;;
13185;SDS011;6658;53.080;7.428;2023-05-10T15:32:28;3.20;;;3.00;;
13185;SDS011;6658;53.080;7.428;2023-05-10T15:34:54;3.80;;;2.93;;
13185;SDS011;6658;53.080;7.428;2023-05-10T15:37:20;2.37;;;2.03;;
13185;SDS011;6658;53.080;7.428;2023-05-10T15:39:48;2.63;;;2.43;;
13185;SDS011;6658;53.080;7.428;2023-05-10T15:42:13;2.50;;;2.30;;
13185;SDS011;6658;53.080;7.428;2023-05-10T15:44:39;3.30;;;2.00;;
13185;SDS011;6658;53.080;7.428;2023-05-10T15:47:05;3.10;;;2.80;;
13185;SDS011;6658;53.080;7.428;2023-05-10T15:49:31;3.23;;;2.27;;
13185;SDS011;6658;53.080;7.428;2023-05-10T15:51:58;2.63;;;2.43;;
13185;SDS011;6658;53.080;7.428;2023-05-10T15:54:24;2.47;;;2.27;;
13185;SDS011;6658;53.080;7.428;2023-05-10T15:56:49;3.77;;;2.50;;
13185;SDS011;6658;53.080;7.428;2023-05-10T15:59:15;2.53;;;2.33;;
13185;SDS011;6658;53.080;7.428;2023-05-10T16:01:41;2.73;;;2.47;;
13185;SDS011;6658;53.080;7.428;2023-05-10T16:04:07;4.07;;;2.80;;
13185;SDS011;6658;53.080;7.428;2023-05-10T16:06:34;3.83;;;3.00;;
13185;SDS011;6658;53.080;7.428;2023-05-10T16:09:01;3.17;;;2.70;;
13185;SDS011;6658;53.080;7.428;2023-05-10T16:11:27;3.80;;;3.20;;
13185;SDS011;6658;53.080;7.428;2023-05-10T16:13:53;3.10;;;2.90;;
13185;SDS011;6658;53.080;7.428;2023-05-10T16:16:19;3.23;;;2.73;;
13185;SDS011;6658;53.080;7.428;2023-05-10T16:18:47;3.50;;;2.77;;
13185;SDS011;6658;53.080;7.428;2023-05-10T16:21:28;2.80;;;2.60;;
13185;SDS011;6658;53.080;7.428;2023-05-10T16:23:56;3.97;;;2.90;;
13185;SDS011;6658;53.080;7.428;2023-05-10T16:26:23;3.53;;;3.20;;
13185;SDS011;6658;53.080;7.428;2023-05-10T16:28:50;3.53;;;3.10;;
13185;SDS011;6658;53.080;7.428;2023-05-10T16:31:15;4.50;;;3.50;;
13185;SDS011;6658;53.080;7.428;2023-05-10T16:33:44;3.83;;;3.40;;
13185;SDS011;6658;53.080;7.428;2023-05-10T16:36:10;4.03;;;3.30;;
13185;SDS011;6658;53.080;7.428;2023-05-10T16:38:36;3.97;;;3.47;;
13185;SDS011;6658;53.080;7.428;2023-05-10T16:41:02;3.40;;;3.20;;
13185;SDS011;6658;53.080;7.428;2023-05-10T16:43:29;3.90;;;3.50;;
13185;SDS011;6658;53.080;7.428;2023-05-10T16:45:57;4.37;;;3.87;;
13185;SDS011;6658;53.080;7.428;2023-05-10T16:48:23;4.23;;;3.57;;
13185;SDS011;6658;53.080;7.428;2023-05-10T16:50:52;4.03;;;3.50;;
13185;SDS011;6658;53.080;7.428;2023-05-10T16:53:18;3.37;;;3.07;;
13185;SDS011;6658;53.080;7.428;2023-05-10T16:55:47;3.50;;;3.20;;